createdAt,value
2023-02-08T00:00:57.995Z,42.78
2023-02-08T00:03:25.132Z,41.05
2023-02-08T00:05:52.167Z,47.60
2023-02-08T00:08:19.267Z,43.13
2023-02-08T00:10:46.325Z,36.28
2023-02-08T00:13:13.397Z,41.55
2023-02-08T00:15:45.175Z,44.25
2023-02-08T00:18:12.774Z,36.60
2023-02-08T00:20:41.943Z,36.80
2023-02-08T00:23:09.188Z,39.17
2023-02-08T00:25:36.836Z,41.40
2023-02-08T00:28:04.866Z,35.15
2023-02-08T00:30:32.752Z,36.95
2023-02-08T00:33:01.544Z,35.00
2023-02-08T00:35:29.204Z,36.28
2023-02-08T00:37:56.809Z,35.42
2023-02-08T00:40:24.474Z,35.40
2023-02-08T00:42:51.692Z,33.80
2023-02-08T00:45:19.059Z,30.23
2023-02-08T00:47:46.156Z,32.22
2023-02-08T00:50:13.271Z,32.30
2023-02-08T00:52:40.462Z,28.20
2023-02-08T00:55:08.188Z,32.15
2023-02-08T00:57:35.974Z,24.23
2023-02-08T01:00:04.693Z,24.05
2023-02-08T01:02:31.759Z,26.65
2023-02-08T01:04:58.940Z,21.08
2023-02-08T01:07:26.068Z,24.42
2023-02-08T01:09:53.130Z,21.05
2023-02-08T01:12:20.292Z,19.55
2023-02-08T01:14:47.488Z,20.92
2023-02-08T01:17:14.616Z,16.67
2023-02-08T01:19:42.644Z,17.33
2023-02-08T01:22:09.758Z,17.20
2023-02-08T01:24:36.863Z,18.98
2023-02-08T01:27:04.101Z,16.10
2023-02-08T01:29:31.432Z,16.98
2023-02-08T01:31:59.336Z,15.85
2023-02-08T01:34:29.952Z,13.98
2023-02-08T01:36:57.151Z,17.55
2023-02-08T01:39:24.199Z,14.10
2023-02-08T01:41:52.076Z,14.77
2023-02-08T01:44:19.138Z,15.65
2023-02-08T01:46:51.795Z,15.35
2023-02-08T01:49:30.344Z,17.05
2023-02-08T01:52:17.717Z,15.45
2023-02-08T01:55:06.951Z,16.48
2023-02-08T01:57:34.093Z,13.63
2023-02-08T02:00:12.489Z,16.85
2023-02-08T02:02:45.921Z,14.55
2023-02-08T02:05:14.194Z,16.13
2023-02-08T02:07:41.872Z,18.63
2023-02-08T02:10:26.535Z,17.42
2023-02-08T02:12:57.320Z,17.98
2023-02-08T02:15:24.557Z,19.45
2023-02-08T02:17:51.735Z,21.00
2023-02-08T02:20:57.342Z,19.20
2023-02-08T02:23:55.279Z,22.00
2023-02-08T02:26:32.313Z,21.48
2023-02-08T02:29:11.571Z,23.25
2023-02-08T02:31:54.443Z,24.80
2023-02-08T02:34:42.882Z,20.90
2023-02-08T02:37:28.612Z,23.92
2023-02-08T02:40:24.315Z,23.60
2023-02-08T02:43:25.266Z,24.27
2023-02-08T02:46:09.134Z,21.48
2023-02-08T02:49:01.012Z,22.30
2023-02-08T02:51:46.494Z,26.33
2023-02-08T02:54:38.835Z,26.30
2023-02-08T02:57:10.805Z,24.35
2023-02-08T02:59:39.605Z,20.67
2023-02-08T03:02:06.803Z,23.83
2023-02-08T03:04:33.773Z,25.73
2023-02-08T03:07:19.137Z,23.65
2023-02-08T03:10:23.268Z,23.30
2023-02-08T03:12:58.999Z,23.33
2023-02-08T03:15:37.856Z,25.25
2023-02-08T03:18:20.386Z,22.92
2023-02-08T03:21:06.011Z,24.52
2023-02-08T03:23:39.623Z,22.45
2023-02-08T03:26:47.717Z,27.02
2023-02-08T03:29:17.270Z,30.25
2023-02-08T03:32:01.325Z,31.88
2023-02-08T03:35:00.353Z,31.65
2023-02-08T03:37:32.053Z,31.10
2023-02-08T03:40:14.346Z,33.28
2023-02-08T03:42:42.259Z,33.10
2023-02-08T03:45:18.713Z,29.58
2023-02-08T03:47:49.714Z,35.55
2023-02-08T03:50:18.647Z,35.88
2023-02-08T03:52:50.879Z,36.53
2023-02-08T03:55:28.013Z,41.05
2023-02-08T03:57:58.891Z,34.47
2023-02-08T04:00:26.278Z,34.60
2023-02-08T04:03:20.334Z,36.42
2023-02-08T04:05:48.195Z,34.20
2023-02-08T04:08:15.332Z,33.97
2023-02-08T04:10:42.870Z,37.05
2023-02-08T04:13:10.157Z,34.80
2023-02-08T04:15:37.328Z,36.63
2023-02-08T04:18:04.574Z,35.78
2023-02-08T04:20:32.297Z,37.90
2023-02-08T04:22:59.410Z,30.33
2023-02-08T04:25:26.955Z,33.75
2023-02-08T04:27:54.896Z,31.48
2023-02-08T04:30:22.034Z,33.65
2023-02-08T04:32:49.227Z,30.65
2023-02-08T04:35:16.341Z,31.85
2023-02-08T04:37:43.495Z,33.17
2023-02-08T04:40:11.423Z,31.33
2023-02-08T04:42:38.589Z,33.15
2023-02-08T04:45:05.912Z,30.70
2023-02-08T04:47:33.062Z,31.77
2023-02-08T04:50:00.088Z,31.30
2023-02-08T04:52:27.228Z,37.95
2023-02-08T04:54:54.476Z,35.00
2023-02-08T04:57:21.640Z,36.05
2023-02-08T04:59:48.697Z,37.15
2023-02-08T05:02:15.778Z,32.35
2023-02-08T05:04:42.775Z,33.35
2023-02-08T05:07:09.929Z,38.22
2023-02-08T05:09:37.069Z,37.22
2023-02-08T05:12:04.599Z,37.58
2023-02-08T05:14:31.618Z,33.90
2023-02-08T05:16:58.684Z,43.90
2023-02-08T05:19:26.699Z,35.80
2023-02-08T05:21:53.832Z,34.35
2023-02-08T05:24:20.870Z,40.80
2023-02-08T05:26:48.027Z,36.15
2023-02-08T05:29:15.561Z,36.97
2023-02-08T05:31:42.860Z,38.90
2023-02-08T05:34:10.107Z,40.45
2023-02-08T05:36:37.146Z,36.97
2023-02-08T05:39:05.096Z,39.72
2023-02-08T05:41:32.213Z,39.92
2023-02-08T05:43:59.421Z,39.05
2023-02-08T05:46:26.621Z,40.25
2023-02-08T05:48:53.750Z,42.25
2023-02-08T05:51:21.387Z,39.33
2023-02-08T05:53:48.543Z,38.67
2023-02-08T05:56:15.617Z,40.60
2023-02-08T05:58:42.812Z,40.15
2023-02-08T06:01:11.663Z,41.25
2023-02-08T06:03:39.748Z,35.50
2023-02-08T06:06:07.219Z,40.85
2023-02-08T06:08:34.369Z,41.22
2023-02-08T06:11:01.378Z,44.97
2023-02-08T06:13:29.477Z,42.92
2023-02-08T06:15:56.991Z,41.20
2023-02-08T06:18:24.180Z,39.50
2023-02-08T06:20:54.885Z,39.83
2023-02-08T06:23:23.349Z,42.20
2023-02-08T06:25:50.519Z,39.35
2023-02-08T06:28:17.954Z,39.95
2023-02-08T06:30:45.091Z,37.45
2023-02-08T06:33:13.918Z,40.22
2023-02-08T06:35:52.441Z,39.38
2023-02-08T06:38:20.095Z,37.70
2023-02-08T06:40:48.093Z,44.10
2023-02-08T06:43:16.193Z,39.97
2023-02-08T06:45:46.077Z,44.53
2023-02-08T06:48:14.043Z,46.42
2023-02-08T06:50:41.581Z,42.00
2023-02-08T06:53:08.826Z,44.47
2023-02-08T06:55:35.957Z,43.45
2023-02-08T06:58:03.055Z,43.85
2023-02-08T07:00:30.651Z,43.90
2023-02-08T07:02:59.100Z,45.20
2023-02-08T07:05:26.096Z,42.45
2023-02-08T07:07:53.743Z,43.58
2023-02-08T07:10:20.885Z,47.95
2023-02-08T07:12:48.124Z,44.25
2023-02-08T07:15:15.520Z,43.35
2023-02-08T07:17:42.610Z,48.28
2023-02-08T07:20:12.243Z,46.83
2023-02-08T07:22:40.450Z,47.25
2023-02-08T07:25:09.093Z,48.05
2023-02-08T07:27:37.081Z,42.28
2023-02-08T07:30:05.219Z,48.03
2023-02-08T07:32:34.675Z,41.88
2023-02-08T07:35:02.338Z,40.80
2023-02-08T07:37:29.470Z,40.92
2023-02-08T07:39:56.866Z,42.88
2023-02-08T07:42:24.013Z,45.40
2023-02-08T07:45:06.331Z,44.88
2023-02-08T07:47:33.456Z,46.05
2023-02-08T07:50:00.698Z,45.72
2023-02-08T07:52:27.785Z,42.60
2023-02-08T07:54:54.826Z,48.38
2023-02-08T07:57:22.367Z,45.55
2023-02-08T07:59:49.548Z,45.63
2023-02-08T08:02:16.666Z,48.05
2023-02-08T08:04:43.825Z,46.67
2023-02-08T08:07:11.091Z,47.80
2023-02-08T08:09:38.341Z,47.13
2023-02-08T08:12:05.769Z,45.28
2023-02-08T08:14:32.907Z,44.85
2023-02-08T08:17:00.084Z,41.80
2023-02-08T08:19:27.348Z,40.55
2023-02-08T08:21:54.517Z,41.50
2023-02-08T08:24:21.825Z,43.50
2023-02-08T08:26:48.972Z,39.95
2023-02-08T08:29:16.138Z,43.05
2023-02-08T08:31:44.134Z,40.53
2023-02-08T08:34:11.369Z,40.72
2023-02-08T08:36:38.458Z,40.03
2023-02-08T08:39:05.534Z,39.55
2023-02-08T08:41:32.664Z,33.97
2023-02-08T08:43:59.769Z,35.60
2023-02-08T08:46:26.900Z,34.75
2023-02-08T08:48:54.022Z,37.63
2023-02-08T08:51:21.138Z,37.38
2023-02-08T08:53:48.259Z,38.30
2023-02-08T08:56:15.344Z,33.53
2023-02-08T08:58:43.836Z,35.28
2023-02-08T09:01:11.200Z,32.75
2023-02-08T09:03:38.291Z,34.38
2023-02-08T09:06:05.642Z,37.10
2023-02-08T09:08:32.711Z,32.00
2023-02-08T09:11:09.043Z,30.50
2023-02-08T09:13:36.915Z,31.00
2023-02-08T09:16:14.138Z,31.85
2023-02-08T09:18:41.966Z,29.10
2023-02-08T09:21:19.253Z,29.80
2023-02-08T09:23:47.930Z,29.60
2023-02-08T09:26:17.054Z,31.80
2023-02-08T09:28:44.508Z,30.60
2023-02-08T09:31:27.963Z,30.02
2023-02-08T09:33:58.174Z,31.70
2023-02-08T09:36:28.041Z,34.33
2023-02-08T09:39:00.472Z,31.40
2023-02-08T09:41:50.057Z,34.55
2023-02-08T09:44:32.225Z,31.08
2023-02-08T09:47:06.228Z,34.42
2023-02-08T09:49:44.123Z,34.25
2023-02-08T09:52:16.523Z,35.97
2023-02-08T09:54:59.849Z,35.40
2023-02-08T09:57:31.828Z,35.40
2023-02-08T10:00:15.065Z,34.78
2023-02-08T10:02:44.542Z,33.22
2023-02-08T10:05:19.848Z,33.88
2023-02-08T10:07:47.616Z,30.30
2023-02-08T10:10:31.338Z,34.45
2023-02-08T10:13:33.017Z,30.08
2023-02-08T10:16:38.464Z,33.13
2023-02-08T10:19:44.292Z,30.67
2023-02-08T10:22:26.356Z,32.78
2023-02-08T10:25:30.848Z,34.42
2023-02-08T10:28:06.437Z,42.20
2023-02-08T10:30:44.982Z,42.90
2023-02-08T10:33:37.587Z,42.28
2023-02-08T10:36:15.353Z,49.08
2023-02-08T10:38:46.687Z,49.70
2023-02-08T10:41:23.484Z,51.92
2023-02-08T10:44:32.396Z,60.15
2023-02-08T10:47:09.246Z,49.72
2023-02-08T10:49:50.334Z,50.28
2023-02-08T10:52:17.564Z,48.85
2023-02-08T10:54:44.737Z,46.80
2023-02-08T10:57:26.116Z,48.53
2023-02-08T11:00:06.638Z,48.30
2023-02-08T11:02:39.708Z,43.60
2023-02-08T11:05:14.612Z,44.75
2023-02-08T11:07:41.965Z,40.67
2023-02-08T11:10:21.110Z,37.05
2023-02-08T11:13:19.802Z,37.33
2023-02-08T11:15:48.529Z,37.15
2023-02-08T11:18:36.046Z,38.33
2023-02-08T11:21:06.610Z,41.70
2023-02-08T11:23:36.999Z,35.63
2023-02-08T11:26:38.456Z,39.33
2023-02-08T11:29:14.670Z,38.20
2023-02-08T11:32:06.633Z,42.30
2023-02-08T11:34:35.387Z,40.28
2023-02-08T11:37:14.055Z,35.58
2023-02-08T11:39:45.382Z,38.38
2023-02-08T11:42:24.887Z,43.40
2023-02-08T11:44:53.950Z,39.85
2023-02-08T11:47:33.193Z,42.45
2023-02-08T11:50:07.732Z,44.80
2023-02-08T11:52:39.482Z,45.70
2023-02-08T11:55:18.772Z,45.30
2023-02-08T11:57:52.045Z,37.85
2023-02-08T12:00:21.558Z,43.25
2023-02-08T12:02:51.257Z,41.13
2023-02-08T12:05:24.741Z,44.60
2023-02-08T12:08:08.544Z,46.22
2023-02-08T12:10:51.077Z,46.17
2023-02-08T12:13:23.733Z,44.10
2023-02-08T12:15:58.647Z,43.08
2023-02-08T12:19:07.473Z,36.88
2023-02-08T12:21:39.901Z,34.75
2023-02-08T12:24:39.919Z,33.15
2023-02-08T12:27:38.982Z,45.00
2023-02-08T12:30:45.375Z,37.90
2023-02-08T12:33:40.154Z,40.05
2023-02-08T12:36:28.648Z,39.05
2023-02-08T12:39:33.272Z,36.72
2023-02-08T12:42:04.982Z,37.28
2023-02-08T12:44:53.491Z,39.97
2023-02-08T12:47:34.626Z,41.53
2023-02-08T12:50:09.405Z,39.17
2023-02-08T12:52:43.077Z,39.00
2023-02-08T12:55:23.879Z,38.97
2023-02-08T12:57:54.797Z,40.78
2023-02-08T13:00:26.082Z,35.63
2023-02-08T13:03:07.125Z,37.72
2023-02-08T13:05:39.851Z,37.53
2023-02-08T13:08:55.975Z,35.67
2023-02-08T13:12:16.637Z,33.42
2023-02-08T13:14:46.246Z,35.45
2023-02-08T13:17:49.189Z,35.35
2023-02-08T13:20:20.576Z,35.65
2023-02-08T13:22:49.900Z,39.97
2023-02-08T13:25:37.399Z,38.80
2023-02-08T13:28:11.792Z,37.40
2023-02-08T13:30:40.898Z,33.28
2023-02-08T13:33:32.151Z,33.80
2023-02-08T13:35:59.812Z,31.33
2023-02-08T13:38:36.212Z,35.80
2023-02-08T13:41:20.023Z,34.50
2023-02-08T13:43:53.471Z,29.42
2023-02-08T13:46:23.321Z,32.20
2023-02-08T13:48:57.028Z,33.22
2023-02-08T13:51:33.049Z,31.80
2023-02-08T13:54:00.520Z,33.65
2023-02-08T13:56:41.596Z,31.85
2023-02-08T13:59:36.699Z,33.30
2023-02-08T14:02:23.272Z,31.60
2023-02-08T14:04:52.937Z,31.52
2023-02-08T14:07:45.234Z,29.95
2023-02-08T14:10:42.029Z,32.35
2023-02-08T14:13:21.520Z,31.98
2023-02-08T14:16:26.879Z,28.70
2023-02-08T14:18:56.750Z,30.48
2023-02-08T14:21:46.536Z,30.13
2023-02-08T14:24:28.824Z,27.23
2023-02-08T14:27:22.134Z,32.20
2023-02-08T14:30:18.572Z,32.90
2023-02-08T14:32:49.089Z,31.75
2023-02-08T14:35:16.155Z,31.25
2023-02-08T14:37:44.617Z,35.63
2023-02-08T14:40:25.160Z,34.95
2023-02-08T14:43:04.904Z,33.88
2023-02-08T14:45:33.551Z,38.92
2023-02-08T14:48:21.666Z,35.67
2023-02-08T14:51:16.738Z,33.17
2023-02-08T14:53:54.512Z,36.65
2023-02-08T14:56:30.890Z,34.13
2023-02-08T14:59:03.018Z,36.78
2023-02-08T15:01:51.590Z,34.92
2023-02-08T15:04:18.760Z,36.35
2023-02-08T15:07:16.258Z,35.45
2023-02-08T15:09:45.443Z,38.13
2023-02-08T15:12:33.966Z,34.80
2023-02-08T15:15:03.608Z,42.33
2023-02-08T15:17:49.125Z,38.00
2023-02-08T15:20:28.782Z,42.67
2023-02-08T15:23:17.095Z,35.97
2023-02-08T15:25:44.661Z,42.60
2023-02-08T15:28:20.958Z,40.03
2023-02-08T15:30:58.731Z,36.42
2023-02-08T15:33:26.780Z,43.80
2023-02-08T15:36:07.792Z,42.03
2023-02-08T15:38:38.810Z,37.92
2023-02-08T15:41:14.303Z,38.75
2023-02-08T15:43:43.231Z,41.10
2023-02-08T15:46:22.786Z,40.58
2023-02-08T15:48:51.223Z,40.65
2023-02-08T15:51:23.274Z,42.50
2023-02-08T15:53:56.137Z,43.33
2023-02-08T15:56:40.043Z,38.03
2023-02-08T15:59:20.040Z,44.65
2023-02-08T16:01:48.430Z,43.58
2023-02-08T16:04:16.162Z,49.70
2023-02-08T16:06:57.388Z,40.50
2023-02-08T16:09:28.701Z,39.92
2023-02-08T16:12:00.226Z,39.00
2023-02-08T16:14:30.361Z,47.08
2023-02-08T16:16:58.969Z,43.38
2023-02-08T16:19:29.791Z,45.20
2023-02-08T16:22:23.215Z,45.50
2023-02-08T16:24:51.113Z,44.75
2023-02-08T16:27:27.740Z,42.80
2023-02-08T16:29:55.414Z,41.55
2023-02-08T16:32:33.162Z,40.83
2023-02-08T16:35:11.175Z,39.90
2023-02-08T16:37:38.522Z,42.90
2023-02-08T16:40:27.056Z,45.22
2023-02-08T16:43:21.860Z,43.85
2023-02-08T16:46:10.719Z,49.88
2023-02-08T16:48:46.029Z,47.05
2023-02-08T16:51:16.970Z,49.63
2023-02-08T16:53:44.193Z,49.15
2023-02-08T16:56:11.753Z,51.22
2023-02-08T16:58:39.428Z,47.40
2023-02-08T17:01:06.616Z,51.17
2023-02-08T17:03:33.999Z,57.13
2023-02-08T17:06:01.550Z,50.38
2023-02-08T17:08:28.792Z,50.75
2023-02-08T17:10:59.237Z,54.80
2023-02-08T17:13:29.866Z,49.97
2023-02-08T17:18:25.963Z,51.90
2023-02-08T17:20:59.566Z,55.10
2023-02-08T17:23:27.062Z,59.35
2023-02-08T17:25:54.213Z,53.33
2023-02-08T17:28:21.844Z,54.47
2023-02-08T17:30:50.011Z,64.68
2023-02-08T17:33:20.191Z,60.47
2023-02-08T17:35:51.459Z,58.35
2023-02-08T17:38:20.250Z,61.05
2023-02-08T17:40:48.011Z,63.42
2023-02-08T17:43:15.226Z,65.70
2023-02-08T17:45:44.177Z,62.58
2023-02-08T17:48:13.726Z,66.32
2023-02-08T17:50:44.216Z,60.63
2023-02-08T17:53:11.648Z,62.22
2023-02-08T17:55:42.335Z,65.82
2023-02-08T17:58:09.555Z,65.25
2023-02-08T18:00:36.838Z,68.10
2023-02-08T18:03:04.100Z,68.22
2023-02-08T18:05:31.305Z,65.95
2023-02-08T18:07:58.507Z,67.65
2023-02-08T18:10:26.542Z,73.57
2023-02-08T18:12:53.748Z,67.05
2023-02-08T18:15:22.186Z,71.43
2023-02-08T18:17:53.023Z,67.13
2023-02-08T18:20:20.234Z,68.47
2023-02-08T18:22:47.357Z,74.05
2023-02-08T18:25:16.294Z,69.93
2023-02-08T18:27:43.605Z,71.45
2023-02-08T18:30:12.121Z,72.15
2023-02-08T18:32:39.839Z,69.72
2023-02-08T18:35:08.183Z,73.20
2023-02-08T18:37:36.558Z,74.57
2023-02-08T18:40:07.005Z,76.75
2023-02-08T18:42:36.045Z,78.35
2023-02-08T18:45:05.142Z,70.77
2023-02-08T18:47:32.753Z,70.65
2023-02-08T18:50:00.005Z,67.78
2023-02-08T18:52:27.291Z,81.57
2023-02-08T18:54:54.391Z,75.20
2023-02-08T18:57:21.584Z,77.65
2023-02-08T18:59:48.680Z,74.57
2023-02-08T19:02:22.014Z,69.20
2023-02-08T19:04:49.650Z,75.55
2023-02-08T19:07:16.761Z,78.88
2023-02-08T19:09:44.369Z,78.63
2023-02-08T19:12:15.642Z,85.93
2023-02-08T19:14:43.944Z,86.72
2023-02-08T19:17:14.309Z,77.88
2023-02-08T19:19:42.543Z,80.75
2023-02-08T19:22:09.724Z,80.57
2023-02-08T19:24:36.949Z,85.10
2023-02-08T19:27:04.175Z,83.13
2023-02-08T19:29:33.442Z,89.35
2023-02-08T19:32:00.805Z,81.67
2023-02-08T19:34:28.001Z,88.63
2023-02-08T19:36:55.546Z,82.53
2023-02-08T19:39:26.386Z,80.20
2023-02-08T19:41:54.358Z,79.22
2023-02-08T19:44:22.047Z,82.82
2023-02-08T19:46:52.422Z,83.65
2023-02-08T19:51:47.184Z,81.38
2023-02-08T19:54:17.639Z,78.78
2023-02-08T19:56:45.796Z,84.07
2023-02-08T19:59:21.929Z,80.72
2023-02-08T20:01:49.692Z,86.05
2023-02-08T20:04:16.881Z,86.20
2023-02-08T20:06:45.306Z,85.30
2023-02-08T20:09:13.334Z,79.70
2023-02-08T20:11:55.867Z,88.07
2023-02-08T20:14:23.840Z,86.30
2023-02-08T20:16:50.943Z,81.90
2023-02-08T20:19:18.294Z,88.72
2023-02-08T20:21:45.581Z,83.50
2023-02-08T20:24:12.832Z,84.13
2023-02-08T20:26:42.729Z,87.45
2023-02-08T20:29:10.629Z,93.20
2023-02-08T20:31:41.162Z,81.38
2023-02-08T20:34:11.584Z,88.22
2023-02-08T20:36:45.114Z,86.88
2023-02-08T20:39:19.166Z,85.65
2023-02-08T20:41:47.662Z,86.55
2023-02-08T20:44:17.313Z,85.57
2023-02-08T20:46:44.851Z,90.55
2023-02-08T20:49:15.545Z,87.57
2023-02-08T20:51:43.569Z,81.88
2023-02-08T20:54:11.786Z,85.30
2023-02-08T20:56:39.592Z,86.55
2023-02-08T20:59:09.194Z,97.82
2023-02-08T21:01:36.812Z,81.55
2023-02-08T21:04:05.336Z,81.47
2023-02-08T21:06:35.034Z,86.32
2023-02-08T21:09:12.567Z,86.38
2023-02-08T21:11:39.870Z,80.15
2023-02-08T21:14:07.987Z,82.35
2023-02-08T21:16:35.204Z,83.95
2023-02-08T21:19:02.383Z,85.20
2023-02-08T21:21:29.576Z,83.22
2023-02-08T21:23:58.117Z,87.95
2023-02-08T21:26:26.494Z,80.53
2023-02-08T21:28:55.632Z,82.15
2023-02-08T21:31:24.236Z,79.93
2023-02-08T21:33:52.271Z,79.22
2023-02-08T21:36:24.504Z,77.15
2023-02-08T21:38:51.939Z,84.95
2023-02-08T21:41:21.945Z,78.45
2023-02-08T21:43:49.976Z,74.75
2023-02-08T21:46:17.843Z,79.03
2023-02-08T21:49:04.107Z,75.15
2023-02-08T21:51:49.671Z,82.22
2023-02-08T21:54:31.855Z,72.72
2023-02-08T21:57:00.113Z,78.78
2023-02-08T21:59:27.780Z,84.10
2023-02-08T22:01:55.186Z,73.90
2023-02-08T22:04:22.380Z,75.00
2023-02-08T22:06:49.553Z,73.30
2023-02-08T22:09:18.077Z,78.65
2023-02-08T22:11:45.547Z,76.80
2023-02-08T22:14:13.780Z,79.68
2023-02-08T22:16:41.567Z,75.13
2023-02-08T22:19:09.107Z,75.32
2023-02-08T22:21:36.317Z,78.50
2023-02-08T22:24:03.420Z,82.10
2023-02-08T22:26:30.669Z,74.80
2023-02-08T22:28:57.797Z,74.88
2023-02-08T22:31:25.626Z,82.25
2023-02-08T22:33:53.946Z,85.25
2023-02-08T22:36:21.481Z,77.25
2023-02-08T22:38:48.595Z,73.82
2023-02-08T22:41:17.634Z,71.72
2023-02-08T22:43:45.449Z,87.05
2023-02-08T22:46:13.191Z,76.88
2023-02-08T22:48:40.439Z,80.70
2023-02-08T22:51:17.381Z,79.72
2023-02-08T22:53:45.400Z,78.80
2023-02-08T22:56:16.959Z,71.72
2023-02-08T22:58:44.435Z,75.50
2023-02-08T23:01:13.562Z,69.28
2023-02-08T23:03:40.961Z,72.37
2023-02-08T23:06:10.082Z,73.45
2023-02-08T23:08:37.217Z,79.32
2023-02-08T23:11:06.482Z,69.78
2023-02-08T23:13:36.015Z,75.05
2023-02-08T23:16:03.384Z,77.65
2023-02-08T23:18:30.598Z,74.28
2023-02-08T23:20:57.724Z,68.38
2023-02-08T23:23:24.876Z,76.95
2023-02-08T23:25:51.975Z,73.13
2023-02-08T23:28:19.149Z,75.07
2023-02-08T23:30:46.530Z,71.20
2023-02-08T23:33:13.926Z,68.28
2023-02-08T23:35:41.972Z,72.43
2023-02-08T23:38:09.852Z,76.68
2023-02-08T23:40:37.036Z,74.90
2023-02-08T23:43:04.418Z,73.40
2023-02-08T23:45:31.709Z,78.07
2023-02-08T23:47:58.861Z,74.70
2023-02-08T23:50:26.553Z,74.30
2023-02-08T23:52:56.685Z,80.40
2023-02-08T23:55:24.505Z,79.38
2023-02-08T23:57:51.592Z,72.10
